Slide Mountain Weather observations

Data are for 10 minute period ending at time listed.
 Day   Time   Solar   Ave.   Ave.  Ave.  Vector  Max.    Baro.  
  of    of     Rad.   Air    Rel.  Wind   Wind   Wind   Press.  
Year   Day            Temp.  Hum.  Speed  Dir.   Gust           
2015   (PST)  Kw/m2    F      %     mph   deg.    mph     mb.   
-----------------------------------------------------------------
 115   12:30   0.75   30.7    98   10.1   335     21.6    705.0 
 115   12:40   0.78   29.1    98    7.4   347     16.6    705.2 
 115   12:50   0.75   29.0    98    5.8   341     16.4    705.2 
 115   13:00   0.87   29.0    98   10.1   336     15.8    705.2 
 115   13:10   0.96   28.1    97   10.0   338     22.1    705.3 
 115   13:20   0.86   28.3    97    7.2   322     12.7    705.4 
 115   13:30   0.87   28.1    97   13.6   327     20.0    705.5 
 115   13:40   0.24   27.7    97    3.4   324     13.3    705.5 
 115   13:50   0.16   27.7    98    3.1   306      7.3    705.5 
 115   14:00   0.28   27.6    98    6.2   336     17.4    705.5 
 115   14:10   0.33   26.4    97   10.9   342     18.7    705.4 
 115   14:20   0.42   26.0    97   11.9   314     17.7    705.5 
 115   14:30   0.37   26.4    98   10.5   302     19.9    705.5 
 115   14:40   0.54   26.4    98    9.9   327     17.7    705.5 
 115   14:50   0.61   26.1    97   14.6   338     20.9    705.4 
 115   15:00   0.42   25.2    97   11.2   342     19.3    705.4 
 115   15:10   0.39   25.9    97    7.8   313     15.1    705.6 
 115   15:20   0.35   26.6    97    9.1   308     18.6    705.7 
 115   15:30   0.25   26.6    97    5.4   316     12.0    705.8 
 115   15:40   0.20   26.4    97    5.2   338     15.0    705.8 
 115   15:50   0.43   26.7    97    6.0   336     12.5    705.8 
 115   16:00   0.36   27.1    98    7.5   328     15.3    705.9 
 115   16:10   0.28   26.6    97    9.8   331     26.8    706.0 
 115   16:20   0.25   25.8    97   12.6   340     23.6    706.0 
 115   16:30   0.34   24.9    97   12.2   335     20.6    706.0 
 115   16:40   0.35   25.2    97   11.2   338     18.2    706.0 
 115   16:50   0.32   25.3    97   11.1   341     18.2    706.1 
 115   17:00   0.26   25.3    97    9.0   360     18.2    706.1 
 115   17:10   0.08   25.4    97    3.4    22     11.9    706.3 
 115   17:20   0.08   25.4    97    4.2   342      9.7    706.3 
 115   17:30   0.09   25.5    97    4.8   331     17.1    706.4 
 115   17:40   0.04   25.4    97    5.1   352      9.2    706.5 
 115   17:50   0.04   25.1    97    4.4   322     17.1    706.5 
 115   18:00   0.03   25.0    97    7.6   331     14.9    706.6 
 115   18:10   0.02   24.7    97    9.2   349     20.2    706.7 
 115   18:20   0.02   24.5    97    7.2   323     13.6    706.8 
 115   18:30   0.02   24.5    97   11.0   337     19.6    706.9 
 115   18:40   0.01   24.0    97   13.7   338     23.2    707.0 
 115   18:50   0.00   23.5    97   14.5   338     22.0    707.1 
 115   19:00   0.00   23.3    97   15.5   345     24.5    707.1 
 115   19:10   0.00   22.9    96   13.2   340     22.9    707.1 
 115   19:20   0.00   22.9    96    7.5     9     14.3    707.3 
 115   19:30   0.00   23.0    96    8.7   352     16.8    707.3 
 115   19:40   0.00   23.0    96    8.7     2     15.0    707.4 
 115   19:50   0.00   22.9    96    5.3    32     15.3    707.5 
 115   20:00   0.00   22.8    96    5.4    16     15.6    707.5 
 115   20:10   0.00   22.7    96    5.6   344     15.3    707.5 
 115   20:20   0.00   22.6    96    4.7   352     12.7    707.6 
 115   20:30   0.00   22.5    96    9.5   353     21.2    707.5 
 115   20:40   0.00   22.2    96   10.7   342     20.0    707.6 
 115   20:50   0.00   22.1    96    9.9   338     19.3    707.7 
 115   21:00   0.00   22.1    96   14.6   334     22.6    707.7 
 115   21:10   0.00   22.1    96   14.8   342     22.0    707.7 
 115   21:20   0.00   22.0    96   14.2   339     26.4    707.8 
 115   21:30   0.00   21.9    96   18.7   337     30.1    707.8 
 115   21:40   0.00   22.0    96   19.0   326     26.8    707.7 
 115   21:50   0.00   22.3    96   13.7   317     26.0    707.7 
 115   22:00   0.00   22.3    96   13.7   319     21.8    707.8 
 115   22:10   0.00   22.2    96   13.6   323     23.8    707.8 
 115   22:20   0.00   22.0    96   12.5   332     21.3    707.8 
 115   22:30   0.00   21.8    96   14.4   332     21.8    707.9 
 115   22:40   0.00   21.9    96   11.4   334     25.1    708.0 
 115   22:50   0.00   21.8    96   12.9   331     23.5    708.0 
 115   23:00   0.00   21.8    96   14.8   321     22.6    708.0 
 115   23:10   0.00   21.6    96   14.0   319     23.3    707.9 
 115   23:20   0.00   21.5    96   16.6   321     24.5    707.9 
 115   23:30   0.00   21.4    96   16.0   320     22.0    708.0 
 115   23:40   0.00   21.4    96   15.6   335     23.9    708.1 
 115   23:50   0.00   21.3    96   12.2   336     23.9    708.2 
 116    0:00   0.00   21.3    96   13.9   336     20.2    708.2 
 116    0:10   0.00   21.1    96   11.8   340     17.2    708.2 
 116    0:20   0.00   20.9    96   13.7   343     21.8    708.3 
 116    0:30   0.00   20.9    96   13.8   342     20.7    708.4 
 116    0:40   0.00   20.8    96   13.0   345     20.5    708.4 
 116    0:50   0.00   20.8    96   11.7   349     22.8    708.5 
 116    1:00   0.00   20.8    95    7.4   340     10.8    708.5 
 116    1:10   0.00   20.7    95    8.7   339     13.7    708.5 
 116    1:20   0.00   20.5    95   10.7   344     20.1    708.5 
 116    1:30   0.00   20.6    96    9.8   346     16.6    708.5 
 116    1:40   0.00   20.5    96    8.3   347     16.2    708.6 
 116    1:50   0.00   20.5    96    6.4   341     10.1    708.6 
 116    2:00   0.00   20.5    95    8.2   335     16.1    708.6 
 116    2:10   0.00   20.6    96   10.2   331     16.7    708.6 
 116    2:20   0.00   20.6    96   11.3   337     19.0    708.6 
 116    2:30   0.00   20.6    96   11.2   337     19.4    708.5 
 116    2:40   0.00   20.7    96    5.3   348     10.0    708.6 
 116    2:50   0.00   20.5    95    4.1     3      9.5    708.7 
 116    3:00   0.00   20.3    95    2.5   357      6.1    708.8 
 116    3:10   0.00   20.4    95    0.9   335      3.2    708.8 
 116    3:20   0.00   20.3    95    4.2   342     10.6    708.9 
 116    3:30   0.00   20.3    95    7.8   338     11.9    709.0 
 116    3:40   0.00   20.5    96    8.1   338     14.3    709.0 
 116    3:50   0.00   20.6    96    5.2   344     11.7    709.0 
 116    4:00   0.00   20.5    95    7.3   334     12.9    709.0 
 116    4:10   0.00   20.5    96    7.6   340     12.5    709.1 
 116    4:20   0.00   20.5    95    5.3   340      9.0    709.2 
 116    4:30   0.00   20.4    95    8.4   337     14.7    709.2 
 116    4:40   0.00   20.4    95    7.6   345     14.0    709.2 
 116    4:50   0.00   20.5    96    6.8   342     13.6    709.2 
 116    5:00   0.00   20.7    96    7.8   343     13.1    709.2 
 116    5:10   0.00   21.4    96    7.5   342     19.6    709.3 
 116    5:20   0.01   21.7    96    3.5   358      7.5    709.4 
 116    5:30   0.03   22.2    96    5.8   344     10.6    709.6 
 116    5:40   0.05   22.6    96    8.1   345     16.0    709.7 
 116    5:50   0.07   23.0    96   10.0   346     20.4    709.7 
 116    6:00   0.10   23.1    96   10.2   348     19.3    709.8 
 116    6:10   0.14   23.5    96    9.2   342     18.5    710.0 
 116    6:20   0.17   23.7    96   10.1   349     19.3    710.1 
 116    6:30   0.19   23.8    96   10.6   360     19.2    710.1 
 116    6:40   0.22   23.2    96   12.9   355     21.2    710.3 
 116    6:50   0.24   23.4    96    6.9     4     17.7    710.5 
 116    7:00   0.28   24.3    96    7.2     6     15.8    710.6 
 116    7:10   0.31   24.3    96    6.2     9     10.5    710.6 
 116    7:20   0.33   24.8    96   10.2     4     19.7    710.6 
 116    7:30   0.37   24.5    96   10.5   350     17.6    710.7 
 116    7:40   0.39   25.6    97    7.1     7     12.4    710.7 
 116    7:50   0.37   26.4    97    5.6    37     12.7    710.8 
 116    8:00   0.45   26.2    97    8.8    22     16.2    710.9 
 116    8:10   0.49   26.2    97    9.0    14     17.8    711.1 
 116    8:20   0.51   26.1    97   11.5     3     23.3    711.1 
 116    8:30   0.53   26.1    97    9.1     8     17.1    711.2 
 116    8:40   0.56   26.0    97   10.2   357     18.4    711.4 
 116    8:50   0.59   26.2    97    8.0   356     13.1    711.6 
 116    9:00   0.60   26.9    97    6.8    14     11.8    711.8 
 116    9:10   0.43   27.2    97    7.2    41     11.4    711.9 
 116    9:20   0.64   27.0    97   11.8    18     24.4    711.9 
 116    9:30   0.67   27.0    97   13.2    18     27.9    712.0 
 116    9:40   0.70   27.6    98   10.6    21     17.7    712.2 
 116    9:50   0.71   27.9    98   10.0    11     23.0    712.4 
 116   10:00   0.73   27.6    97   10.3    10     22.1    712.7 
 116   10:10   0.69   27.8    97   10.2    27     17.7    712.9 
 116   10:20   0.72   27.8    97    9.6    35     22.1    713.0 
 116   10:30   0.63   27.8    98   12.1    54     22.4    713.1 
 116   10:40   0.70   27.4    97   12.1    63     21.3    713.1 
 116   10:50   0.78   27.8    98   13.1    52     30.1    713.2 
 116   11:00   0.81   27.9    97   14.3    28     22.7    713.4 
 116   11:10   0.81   28.2    98   12.3    11     26.5    713.4 
 116   11:20   0.82   28.5    98   11.8    31     20.7    713.5 
 116   11:30   0.82   28.3    97   11.9    39     21.6    713.4 
 116   11:40   0.82   29.1    98   10.5    32     24.3    713.5 
 116   11:50   0.82   29.1    97   14.5    46     22.8    713.5 
 116   12:00   0.82   28.8    97    8.5    59     20.2    713.7 
 116   12:10   0.81   29.0    97    8.1    48     14.6    713.7 
 116   12:20   0.82   29.1    97   11.3    15     23.3    713.9 

Return to Slide Mountain graphs page.


Western Regional Climate Center,wrcc@dri.edu